Time;durP1;ratioP1;P1;durP2;ratioP2;P2;SDS_P1;SDS_P2;PMS_P1;PMS_P2;Temp;Humidity;BMP_temperature;BMP_pressure;BME280_temperature;BME280_humidity;BME280_pressure;Samples;Min_cycle;Max_cycle;Signal;HPM_P1;HPM_P2
2021/08/07 00:01:01;;;;;;;6.90;3.30;;;;;;;16.73;75.41;100047.36;1765258;81;21748;-85
2021/08/07 00:03:27;;;;;;;7.47;3.10;;;;;;;16.73;75.41;100044.70;1769624;80;21023;-85
2021/08/07 00:05:54;;;;;;;8.78;3.70;;;;;;;16.73;75.43;100044.24;1775993;79;21018;-85
2021/08/07 00:08:21;;;;;;;10.43;3.15;;;;;;;16.69;75.52;100038.53;1774077;80;21478;-85
2021/08/07 00:10:48;;;;;;;12.75;5.62;;;;;;;16.72;75.50;100045.13;1767624;80;21502;-85
2021/08/07 00:13:14;;;;;;;6.25;3.55;;;;;;;16.72;75.59;100038.48;1771867;79;21775;-85
2021/08/07 00:15:41;;;;;;;9.55;4.35;;;;;;;16.72;75.62;100041.14;1766719;80;21289;-86
2021/08/07 00:18:08;;;;;;;6.35;3.30;;;;;;;16.71;75.65;100039.39;1784538;80;21026;-86
2021/08/07 00:20:34;;;;;;;6.58;3.10;;;;;;;16.72;75.70;100038.48;1769620;80;21086;-86
2021/08/07 00:23:01;;;;;;;8.25;3.90;;;;;;;16.71;75.74;100036.28;1765491;80;21011;-86
2021/08/07 00:25:28;;;;;;;6.70;3.50;;;;;;;16.70;75.76;100041.18;1764056;80;22404;-86
2021/08/07 00:27:55;;;;;;;8.10;5.53;;;;;;;16.69;75.88;100038.08;1769068;80;21031;-85
2021/08/07 00:30:22;;;;;;;7.03;4.12;;;;;;;16.69;75.94;100034.55;1781951;80;21581;-85
2021/08/07 00:32:48;;;;;;;8.75;4.78;;;;;;;16.68;76.03;100030.12;1776989;80;21481;-85
2021/08/07 00:35:15;;;;;;;7.25;3.00;;;;;;;16.67;76.05;100025.72;1779419;79;21069;-85
2021/08/07 00:37:42;;;;;;;9.88;4.67;;;;;;;16.65;76.18;100028.39;1767590;79;21775;-86
2021/08/07 00:40:12;;;;;;;10.50;3.62;;;;;;;16.64;76.17;100025.74;1781352;80;20991;-85
2021/08/07 00:42:38;;;;;;;6.33;3.37;;;;;;;16.62;76.21;100032.85;1784479;80;21006;-86
2021/08/07 00:45:05;;;;;;;7.12;4.55;;;;;;;16.61;76.24;100025.34;1784594;79;21401;-85
2021/08/07 00:47:32;;;;;;;12.18;7.33;;;;;;;16.60;76.31;100018.71;1784699;80;21323;-86
2021/08/07 00:49:59;;;;;;;8.10;3.20;;;;;;;16.57;76.35;100021.39;1784079;80;21797;-85
2021/08/07 00:52:25;;;;;;;7.58;4.05;;;;;;;16.54;76.40;100022.31;1784757;80;21550;-85
2021/08/07 00:54:53;;;;;;;10.85;4.20;;;;;;;16.52;76.50;100025.44;1775853;80;21054;-85
2021/08/07 00:57:19;;;;;;;10.43;3.90;;;;;;;16.46;76.53;100032.12;1775933;80;21485;-85
2021/08/07 00:59:46;;;;;;;9.48;4.00;;;;;;;16.43;76.63;100029.52;1776534;79;21038;-85
2021/08/07 01:02:16;;;;;;;6.62;3.62;;;;;;;16.40;76.76;100028.21;1775719;80;21952;-85
2021/08/07 01:04:59;;;;;;;4.80;2.65;;;;;;;16.39;76.83;100029.12;1762615;80;21010;-85
2021/08/07 01:07:40;;;;;;;10.85;5.33;;;;;;;16.36;76.92;100030.02;1784913;80;21038;-85
2021/08/07 01:10:21;;;;;;;9.73;4.75;;;;;;;16.32;76.99;100030.95;1783270;80;21587;-85
2021/08/07 01:13:01;;;;;;;11.35;4.87;;;;;;;16.28;77.07;100029.23;1784575;80;21022;-85
2021/08/07 01:15:29;;;;;;;6.10;3.40;;;;;;;16.22;77.09;100033.28;1784903;80;21765;-85
2021/08/07 01:17:56;;;;;;;5.83;3.50;;;;;;;16.16;77.18;100031.56;1781515;80;21054;-85
2021/08/07 01:20:39;;;;;;;8.93;3.05;;;;;;;16.09;77.26;100032.51;1773382;78;21051;-85
2021/08/07 01:23:26;;;;;;;6.85;3.55;;;;;;;16.02;77.39;100035.65;1764722;81;21410;-85
2021/08/07 01:26:04;;;;;;;9.45;4.33;;;;;;;15.96;77.49;100035.72;1764284;81;21098;-86
2021/08/07 01:28:35;;;;;;;7.67;3.50;;;;;;;15.87;77.62;100041.97;1765118;80;21818;-86
2021/08/07 01:31:02;;;;;;;9.13;2.95;;;;;;;15.81;77.81;100042.02;1765124;81;21103;-85
2021/08/07 01:33:29;;;;;;;7.72;2.95;;;;;;;15.75;77.90;100047.39;1771520;80;21030;-85
2021/08/07 01:35:56;;;;;;;4.90;2.55;;;;;;;15.69;78.09;100046.95;1764796;80;21509;-86
2021/08/07 01:38:23;;;;;;;8.13;3.40;;;;;;;15.65;78.21;100041.66;1774238;79;21011;-85
2021/08/07 01:40:50;;;;;;;6.05;2.92;;;;;;;15.59;78.39;100042.59;1769996;79;22052;-85
2021/08/07 01:43:16;;;;;;;7.92;2.85;;;;;;;15.57;78.58;100047.02;1776456;80;21085;-85
2021/08/07 01:45:45;;;;;;;10.08;3.22;;;;;;;15.54;78.78;100045.28;1784494;80;21054;-86
2021/08/07 01:48:34;;;;;;;6.17;2.87;;;;;;;15.54;78.87;100048.36;1784387;80;21050;-86
2021/08/07 01:51:11;;;;;;;6.50;3.10;;;;;;;15.51;78.97;100043.09;1762595;80;21015;-86
2021/08/07 01:53:38;;;;;;;7.22;3.05;;;;;;;15.49;79.08;100043.55;1774821;80;22040;-85
2021/08/07 01:56:30;;;;;;;5.00;2.67;;;;;;;15.47;79.19;100034.73;1776004;80;21026;-86
2021/08/07 01:59:00;;;;;;;8.30;2.80;;;;;;;15.44;79.31;100046.22;1783065;79;21010;-86
2021/08/07 02:01:28;;;;;;;10.75;3.30;;;;;;;15.45;79.42;100041.82;1783972;80;21597;-86
2021/08/07 02:03:56;;;;;;;7.55;3.30;;;;;;;15.44;79.49;100040.04;1766813;79;46752;-86
2021/08/07 02:06:23;;;;;;;11.45;3.80;;;;;;;15.40;79.60;100042.28;1780413;80;22655;-86
2021/08/07 02:08:50;;;;;;;8.48;3.08;;;;;;;15.40;79.66;100047.59;1768695;80;21490;-86
2021/08/07 02:11:17;;;;;;;7.15;2.95;;;;;;;15.38;79.71;100047.59;1765121;81;21074;-86
2021/08/07 02:13:44;;;;;;;7.30;2.83;;;;;;;15.35;79.74;100051.58;1764971;81;21388;-86
2021/08/07 02:16:10;;;;;;;8.25;3.30;;;;;;;15.32;79.81;100052.94;1764835;81;21063;-86
2021/08/07 02:18:38;;;;;;;10.28;3.45;;;;;;;15.31;79.84;100049.83;1763363;81;21724;-86
2021/08/07 02:21:05;;;;;;;10.35;3.65;;;;;;;15.27;80.02;100052.95;1768570;80;21059;-85
2021/08/07 02:23:32;;;;;;;9.98;3.52;;;;;;;15.25;80.05;100054.73;1766025;80;21008;-86
2021/08/07 02:26:02;;;;;;;10.28;4.58;;;;;;;15.22;80.15;100057.84;1761258;80;21448;-86
2021/08/07 02:28:30;;;;;;;11.22;4.08;;;;;;;15.20;80.24;100051.66;1780042;79;21007;-86
2021/08/07 02:30:59;;;;;;;10.53;4.22;;;;;;;15.18;80.35;100052.12;1768287;80;21924;-86
2021/08/07 02:33:26;;;;;;;8.40;3.87;;;;;;;15.15;80.44;100058.33;1774510;80;21039;-86
2021/08/07 02:35:55;;;;;;;8.53;4.00;;;;;;;15.14;80.53;100058.75;1768916;79;21054;-87
2021/08/07 02:38:23;;;;;;;9.83;4.08;;;;;;;15.12;80.55;100058.33;1757765;80;21035;-86
2021/08/07 02:40:50;;;;;;;9.00;4.37;;;;;;;15.12;80.63;100067.16;1768802;80;21020;-86
2021/08/07 02:43:17;;;;;;;10.60;4.37;;;;;;;15.11;80.70;100064.54;1765389;80;21819;-89
2021/08/07 02:45:44;;;;;;;10.95;3.98;;;;;;;15.09;80.81;100064.96;1765381;80;21054;-86
2021/08/07 02:48:10;;;;;;;9.70;4.10;;;;;;;15.08;80.84;100065.87;1774033;80;21527;-86
2021/08/07 02:50:39;;;;;;;10.10;4.25;;;;;;;15.08;80.99;100062.77;1776052;80;22550;-86
2021/08/07 02:53:06;;;;;;;13.38;4.60;;;;;;;15.08;80.95;100059.23;1768684;79;21575;-86
2021/08/07 02:55:33;;;;;;;6.67;4.05;;;;;;;15.08;81.03;100064.54;1769555;80;21787;-86
2021/08/07 02:58:00;;;;;;;10.55;4.10;;;;;;;15.07;81.04;100065.41;1767276;80;21000;-86
2021/08/07 03:00:27;;;;;;;11.40;4.30;;;;;;;15.05;81.08;100061.44;1742821;81;21042;-86
2021/08/07 03:02:53;;;;;;;10.35;3.98;;;;;;;15.03;81.09;100060.56;1764959;80;21100;-86
2021/08/07 03:05:20;;;;;;;11.70;6.50;;;;;;;15.05;81.22;100065.87;1775038;80;21015;-86
2021/08/07 03:07:47;;;;;;;10.03;5.08;;;;;;;15.04;81.21;100064.13;1765409;79;22590;-86
2021/08/07 03:10:14;;;;;;;9.83;4.20;;;;;;;15.05;81.29;100065.87;1773934;80;21043;-86
2021/08/07 03:12:42;;;;;;;9.85;4.87;;;;;;;15.05;81.38;100065.41;1783480;79;22217;-86
2021/08/07 03:15:10;;;;;;;9.63;4.08;;;;;;;15.06;81.44;100067.64;1783750;80;21151;-86
2021/08/07 03:17:39;;;;;;;8.45;4.33;;;;;;;15.06;81.49;100065.87;1774767;80;21022;-87
2021/08/07 03:20:06;;;;;;;8.13;4.37;;;;;;;15.07;81.54;100067.64;1775167;80;21783;-86
2021/08/07 03:22:33;;;;;;;7.60;3.25;;;;;;;15.10;81.60;100067.61;1775150;80;21066;-86
2021/08/07 03:25:00;;;;;;;6.60;3.67;;;;;;;15.12;81.65;100068.48;1770616;79;21066;-86
2021/08/07 03:27:27;;;;;;;9.10;3.83;;;;;;;15.14;81.68;100065.83;1770584;80;21012;-86
2021/08/07 03:29:54;;;;;;;8.25;3.50;;;;;;;15.15;81.67;100063.17;1767714;80;21024;-86
2021/08/07 03:32:21;;;;;;;9.05;3.60;;;;;;;15.20;81.69;100064.92;1769396;80;21654;-86
2021/08/07 03:34:47;;;;;;;11.08;3.83;;;;;;;15.22;81.73;100069.34;1775822;79;21031;-86
2021/08/07 03:37:14;;;;;;;11.18;3.92;;;;;;;15.24;81.75;100066.23;1769575;80;21501;-87
2021/08/07 03:39:41;;;;;;;5.92;3.27;;;;;;;15.27;81.74;100066.20;1765154;80;21027;-86
2021/08/07 03:42:07;;;;;;;8.28;3.85;;;;;;;15.29;81.73;100065.75;1766571;80;21050;-86
2021/08/07 03:44:34;;;;;;;6.70;3.75;;;;;;;15.32;81.74;100064.88;1769036;80;21841;-86
2021/08/07 03:47:01;;;;;;;4.78;3.42;;;;;;;15.34;81.71;100059.98;1784667;78;21151;-86
2021/08/07 03:49:27;;;;;;;7.40;3.27;;;;;;;15.38;81.70;100060.84;1784390;80;21026;-86
2021/08/07 03:51:54;;;;;;;10.40;3.55;;;;;;;15.41;81.67;100059.52;1784452;80;21974;-86
2021/08/07 03:54:21;;;;;;;9.50;3.25;;;;;;;15.44;81.66;100057.28;1784746;80;21073;-86
2021/08/07 03:56:47;;;;;;;10.10;3.50;;;;;;;15.46;81.63;100055.05;1784600;79;21817;-86
2021/08/07 03:59:14;;;;;;;8.40;3.37;;;;;;;15.51;81.59;100059.88;1784861;80;21034;-86
2021/08/07 04:01:41;;;;;;;7.58;3.58;;;;;;;15.58;81.64;100060.73;1774084;80;21552;-87
2021/08/07 04:04:09;;;;;;;7.12;3.70;;;;;;;15.67;81.66;100056.70;1769308;80;21563;-86
2021/08/07 04:06:36;;;;;;;7.72;3.77;;;;;;;15.77;81.62;100061.98;1769120;79;21035;-86
2021/08/07 04:09:03;;;;;;;7.33;3.60;;;;;;;15.85;81.53;100057.48;1777689;79;21777;-87
2021/08/07 04:11:29;;;;;;;9.33;3.98;;;;;;;16.03;81.66;100056.44;1766164;79;21011;-86
2021/08/07 04:13:56;;;;;;;10.98;2.80;;;;;;;16.20;81.39;100056.28;1775506;79;21026;-86
2021/08/07 04:16:23;;;;;;;9.50;4.03;;;;;;;16.26;80.96;100049.16;1776146;80;21019;-86
2021/08/07 04:18:50;;;;;;;6.35;3.08;;;;;;;16.30;80.67;100050.01;1784921;79;21038;-86
2021/08/07 04:21:16;;;;;;;6.78;2.85;;;;;;;16.31;80.57;100050.42;1776036;79;21777;-86
2021/08/07 04:23:43;;;;;;;9.78;3.17;;;;;;;16.31;80.41;100044.69;1775790;79;21297;-85
2021/08/07 04:26:10;;;;;;;9.28;3.27;;;;;;;16.35;80.45;100045.96;1775879;80;21062;-86
2021/08/07 04:28:36;;;;;;;7.42;2.90;;;;;;;16.41;80.43;100041.94;1775023;80;21035;-85
2021/08/07 04:31:05;;;;;;;5.75;2.98;;;;;;;16.55;80.60;100047.09;1764058;80;21058;-85
2021/08/07 04:33:33;;;;;;;8.35;3.22;;;;;;;16.91;80.99;100044.48;1776591;80;21876;-86
2021/08/07 04:36:05;;;;;;;6.25;2.77;;;;;;;17.45;81.21;100041.98;1770800;80;21011;-86
2021/08/07 04:38:32;;;;;;;6.50;2.58;;;;;;;18.14;80.72;100043.17;1762426;80;21571;-86
2021/08/07 04:40:58;;;;;;;6.00;2.60;;;;;;;18.89;80.25;100043.58;1773430;80;21520;-86
2021/08/07 04:43:25;;;;;;;5.10;2.35;;;;;;;19.82;79.90;100051.32;1776387;79;21094;-86
2021/08/07 04:45:52;;;;;;;3.35;2.50;;;;;;;21.04;79.50;100054.34;1775988;79;22511;-86
2021/08/07 04:48:19;;;;;;;6.72;2.30;;;;;;;22.62;78.83;100045.69;1775797;79;21575;-86
2021/08/07 04:50:46;;;;;;;6.65;2.35;;;;;;;24.51;77.22;100049.41;1773063;79;21070;-87
2021/08/07 04:53:13;;;;;;;5.10;2.40;;;;;;;26.80;74.98;100035.28;1769509;80;21000;-87
2021/08/07 04:55:39;;;;;;;6.03;2.33;;;;;;;28.96;71.76;100039.94;1783909;79;21038;-87
2021/08/07 04:58:06;;;;;;;4.62;2.08;;;;;;;30.69;68.12;100038.48;1784585;80;21686;-87
2021/08/07 05:00:33;;;;;;;3.12;1.77;;;;;;;32.09;64.40;100036.96;1774211;80;21446;-87
2021/08/07 05:03:00;;;;;;;5.65;2.40;;;;;;;33.37;62.33;100037.84;1771365;80;21011;-87
2021/08/07 05:05:26;;;;;;;4.78;2.30;;;;;;;34.63;59.92;100038.16;1776137;80;21085;-87
2021/08/07 05:07:53;;;;;;;6.65;1.95;;;;;;;35.23;55.75;100040.63;1772787;80;21014;-87
2021/08/07 05:10:21;;;;;;;4.90;2.30;;;;;;;34.78;53.61;100039.60;1775974;80;21765;-87
2021/08/07 05:12:49;;;;;;;3.65;1.80;;;;;;;34.45;51.98;100044.74;1779005;79;21085;-87
2021/08/07 05:15:16;;;;;;;6.40;2.05;;;;;;;33.29;51.02;100052.96;1778900;79;20999;-87
2021/08/07 05:17:43;;;;;;;4.45;2.35;;;;;;;32.36;50.56;100050.32;1774609;79;21540;-87
2021/08/07 05:20:11;;;;;;;3.60;2.15;;;;;;;31.68;50.32;100047.22;1768586;80;21568;-87
2021/08/07 05:22:37;;;;;;;3.25;2.05;;;;;;;30.90;50.16;100054.23;1776116;79;21778;-87
2021/08/07 05:25:10;;;;;;;5.10;2.12;;;;;;;30.95;51.08;100050.25;1780218;79;20983;-87
2021/08/07 05:27:36;;;;;;;5.08;2.27;;;;;;;32.02;50.90;100051.52;1783579;79;20999;-87
2021/08/07 05:30:07;;;;;;;3.90;1.85;;;;;;;32.98;50.20;100064.11;1774505;80;21595;-87
2021/08/07 05:32:34;;;;;;;4.80;1.85;;;;;;;34.38;49.05;100058.56;1769199;80;21011;-87
2021/08/07 05:35:01;;;;;;;3.47;1.77;;;;;;;35.48;47.45;100060.81;1765262;81;21772;-87
2021/08/07 05:37:28;;;;;;;5.97;2.30;;;;;;;35.56;45.86;100069.18;1777879;80;21050;-87
2021/08/07 05:39:55;;;;;;;4.95;2.12;;;;;;;35.24;44.82;100064.75;1784573;79;21019;-87
2021/08/07 05:42:21;;;;;;;4.90;2.40;;;;;;;35.14;44.42;100063.78;1779286;80;20991;-87
2021/08/07 05:44:48;;;;;;;3.08;1.80;;;;;;;33.99;42.88;100070.48;1769040;80;21021;-87
2021/08/07 05:47:15;;;;;;;4.80;2.10;;;;;;;32.29;42.89;100066.75;1764887;81;21862;-87
2021/08/07 05:49:42;;;;;;;4.95;2.08;;;;;;;30.61;43.62;100062.11;1761663;80;21015;-87
2021/08/07 05:52:09;;;;;;;5.65;1.87;;;;;;;29.22;44.44;100064.92;1782948;80;21041;-87
2021/08/07 05:54:35;;;;;;;4.80;1.90;;;;;;;28.01;45.22;100062.33;1784274;79;21518;-87
2021/08/07 05:57:03;;;;;;;6.55;2.20;;;;;;;26.89;46.22;100062.66;1776567;80;21555;-87
2021/08/07 05:59:29;;;;;;;3.37;1.77;;;;;;;25.94;47.25;100064.84;1776206;79;22530;-87
2021/08/07 06:01:56;;;;;;;5.37;1.80;;;;;;;25.19;48.30;100070.16;1779323;79;22178;-87
2021/08/07 06:04:22;;;;;;;7.42;1.90;;;;;;;24.55;49.25;100076.64;1776272;79;21007;-87
2021/08/07 06:06:49;;;;;;;5.25;2.02;;;;;;;24.04;50.24;100080.11;1779098;79;21050;-87
2021/08/07 06:09:16;;;;;;;4.20;2.15;;;;;;;23.59;50.81;100076.07;1775414;80;21038;-87
2021/08/07 06:11:42;;;;;;;7.30;1.82;;;;;;;23.19;51.45;100075.81;1784160;80;21907;-86
2021/08/07 06:14:09;;;;;;;6.08;1.90;;;;;;;22.86;52.23;100079.24;1777036;79;21003;-87
2021/08/07 06:16:36;;;;;;;4.25;1.90;;;;;;;22.57;52.84;100080.31;1778170;80;21500;-87
2021/08/07 06:19:03;;;;;;;6.08;3.27;;;;;;;22.36;53.50;100083.28;1784445;80;21070;-87
2021/08/07 06:21:30;;;;;;;4.75;3.50;;;;;;;22.18;53.97;100080.71;1768240;80;21035;-85
2021/08/07 06:23:58;;;;;;;3.15;2.45;;;;;;;21.96;54.22;100084.12;1765440;80;21717;-87
2021/08/07 06:26:26;;;;;;;4.70;2.50;;;;;;;21.66;55.21;100078.81;1774160;80;21011;-85
2021/08/07 06:28:53;;;;;;;4.35;2.92;;;;;;;21.66;55.21;100078.81;1775943;80;21489;-85
2021/08/07 06:31:20;;;;;;;8.70;2.77;;;;;;;21.36;55.81;100081.95;1782043;79;21050;-85
2021/08/07 06:33:47;;;;;;;4.47;2.00;;;;;;;21.09;56.03;100063.08;1784412;79;21090;-85
2021/08/07 06:36:13;;;;;;;5.58;2.80;;;;;;;21.09;56.03;100063.08;1784391;80;21787;-85
2021/08/07 06:38:41;;;;;;;5.53;2.85;;;;;;;21.12;56.56;100079.53;1780983;79;21015;-85
2021/08/07 06:41:09;;;;;;;4.72;2.30;;;;;;;21.03;56.71;100081.13;1766456;80;21023;-85
2021/08/07 06:43:36;;;;;;;5.65;2.52;;;;;;;20.91;57.09;100076.98;1765635;80;21109;-85
2021/08/07 06:46:03;;;;;;;4.65;1.92;;;;;;;20.78;57.23;100082.70;1764425;81;21039;-87
2021/08/07 06:48:29;;;;;;;5.80;2.70;;;;;;;20.65;57.25;100085.77;1765023;81;21780;-87
2021/08/07 06:50:56;;;;;;;4.80;2.72;;;;;;;20.58;57.72;100082.33;1771162;80;21008;-85
2021/08/07 06:53:23;;;;;;;5.80;2.27;;;;;;;20.54;57.99;100084.67;1764834;80;21074;-85
2021/08/07 06:55:49;;;;;;;3.60;1.98;;;;;;;20.49;58.09;100083.91;1771658;80;21050;-85
2021/08/07 06:58:16;;;;;;;4.37;3.00;;;;;;;20.45;58.29;100089.80;1776268;80;21046;-85
2021/08/07 07:00:43;;;;;;;6.97;4.55;;;;;;;20.49;58.48;100089.26;1775166;80;22626;-85
2021/08/07 07:03:10;;;;;;;4.85;3.50;;;;;;;20.52;58.61;100089.19;1772459;79;21504;-85
2021/08/07 07:05:37;;;;;;;6.47;3.35;;;;;;;20.59;58.65;100090.78;1777815;80;21019;-85
2021/08/07 07:08:04;;;;;;;5.05;2.27;;;;;;;20.68;58.59;100090.54;1776039;79;21402;-85
2021/08/07 07:10:31;;;;;;;5.40;2.22;;;;;;;20.68;58.49;100093.68;1773196;79;21524;-85
2021/08/07 07:12:58;;;;;;;7.00;3.75;;;;;;;20.67;58.50;100097.30;1776177;79;21725;-85
2021/08/07 07:15:25;;;;;;;4.12;2.70;;;;;;;20.67;58.49;100095.95;1775577;79;21000;-85
2021/08/07 07:17:51;;;;;;;4.33;2.35;;;;;;;20.70;58.68;100108.78;1761999;81;21075;-86
2021/08/07 07:20:18;;;;;;;3.05;1.70;;;;;;;20.75;58.76;100109.52;1768191;80;21349;-86
2021/08/07 07:22:45;;;;;;;2.70;1.65;;;;;;;20.79;58.64;100110.31;1765279;80;21048;-86
2021/08/07 07:25:12;;;;;;;4.08;2.20;;;;;;;20.83;58.50;100114.66;1761725;80;21728;-86
2021/08/07 07:27:39;;;;;;;4.33;2.22;;;;;;;20.88;58.58;100118.09;1762893;81;21024;-86
2021/08/07 07:30:09;;;;;;;7.22;2.05;;;;;;;20.95;58.47;100115.66;1764964;80;21089;-86
2021/08/07 07:32:36;;;;;;;3.62;1.80;;;;;;;20.98;58.34;100117.37;1763298;80;21038;-86
2021/08/07 07:35:03;;;;;;;4.95;2.10;;;;;;;21.03;58.53;100125.28;1765284;80;21034;-86
2021/08/07 07:37:30;;;;;;;3.45;1.90;;;;;;;21.20;58.46;100124.33;1779522;79;21854;-86
2021/08/07 07:39:57;;;;;;;5.50;2.10;;;;;;;21.42;58.12;100126.39;1784317;80;21053;-86
2021/08/07 07:42:23;;;;;;;8.38;2.05;;;;;;;21.58;57.69;100122.34;1773559;79;21536;-86
2021/08/07 07:44:50;;;;;;;2.80;1.35;;;;;;;21.63;57.44;100121.75;1775800;80;21011;-86
2021/08/07 07:47:17;;;;;;;6.12;1.80;;;;;;;21.70;57.36;100123.80;1770407;80;21063;-86
2021/08/07 07:49:44;;;;;;;2.75;2.00;;;;;;;21.72;57.16;100125.95;1780562;79;21976;-86
2021/08/07 07:52:10;;;;;;;2.33;1.42;;;;;;;21.79;57.02;100128.86;1784538;80;21062;-86
2021/08/07 07:54:37;;;;;;;6.00;1.72;;;;;;;21.94;57.09;100131.05;1773464;80;21047;-86
2021/08/07 07:57:04;;;;;;;4.75;1.67;;;;;;;22.14;56.59;100130.39;1764925;80;21087;-86
2021/08/07 07:59:31;;;;;;;3.95;1.80;;;;;;;22.17;56.54;100132.11;1767070;80;21086;-86
2021/08/07 08:02:02;;;;;;;6.05;1.50;;;;;;;22.17;56.54;100132.11;1769122;80;21946;-86
2021/08/07 08:04:26;;;;;;;4.17;1.87;;;;;;;22.19;56.21;100134.75;1766587;80;21019;-86
2021/08/07 08:06:52;;;;;;;2.15;1.72;;;;;;;22.18;56.05;100132.51;1770782;80;21074;-86
2021/08/07 08:09:19;;;;;;;5.62;1.70;;;;;;;22.18;56.03;100131.64;1760207;80;21019;-86
2021/08/07 08:11:46;;;;;;;3.10;1.70;;;;;;;22.16;55.65;100141.06;1764630;80;21039;-86
2021/08/07 08:14:13;;;;;;;3.92;1.90;;;;;;;22.01;55.64;100137.08;1765307;80;21710;-86
2021/08/07 08:16:39;;;;;;;3.70;1.70;;;;;;;22.01;55.64;100137.08;1765211;81;21051;-86
2021/08/07 08:19:07;;;;;;;3.00;1.55;;;;;;;22.06;55.87;100136.48;1776762;80;21018;-86
2021/08/07 08:21:33;;;;;;;3.98;1.60;;;;;;;22.18;55.65;100137.88;1784511;80;21629;-86
2021/08/07 08:24:00;;;;;;;1.90;1.50;;;;;;;22.26;55.72;100142.57;1782218;80;21046;-86
2021/08/07 08:26:27;;;;;;;6.22;2.00;;;;;;;22.39;55.78;100136.78;1782762;80;21758;-86
2021/08/07 08:28:54;;;;;;;3.47;1.80;;;;;;;22.49;55.60;100129.72;1765662;80;21035;-87
2021/08/07 08:31:21;;;;;;;4.87;1.55;;;;;;;22.57;55.55;100142.86;1769585;80;21102;-86
2021/08/07 08:33:48;;;;;;;2.67;1.37;;;;;;;22.69;55.23;100120.09;1778051;79;21054;-86
2021/08/07 08:36:14;;;;;;;2.62;1.50;;;;;;;23.00;54.42;100144.52;1784340;80;21026;-86
2021/08/07 08:38:41;;;;;;;7.80;1.95;;;;;;;23.13;54.31;100153.91;1780884;80;21750;-87
2021/08/07 08:41:08;;;;;;;5.87;3.27;;;;;;;23.27;54.09;100154.73;1766045;80;21102;-87
2021/08/07 08:43:34;;;;;;;4.55;2.95;;;;;;;23.30;53.68;100154.63;1767643;80;21087;-86
2021/08/07 08:46:01;;;;;;;2.72;1.80;;;;;;;23.28;53.35;100161.87;1783616;80;21465;-86
2021/08/07 08:48:29;;;;;;;3.08;1.40;;;;;;;23.19;53.03;100167.57;1779117;80;21070;-87
2021/08/07 08:50:56;;;;;;;7.70;2.27;;;;;;;23.19;52.91;100167.57;1784068;80;22580;-87
2021/08/07 08:53:22;;;;;;;5.58;1.85;;;;;;;23.05;51.99;100171.63;1777695;80;21065;-87
2021/08/07 08:55:49;;;;;;;3.77;1.60;;;;;;;23.05;51.99;100171.63;1769625;80;21541;-86
2021/08/07 08:58:16;;;;;;;3.37;1.47;;;;;;;23.06;52.19;100169.34;1764842;81;21071;-86
2021/08/07 09:00:43;;;;;;;4.97;3.92;;;;;;;23.28;52.25;100168.10;1764522;81;21082;-87
2021/08/07 09:03:10;;;;;;;5.03;2.50;;;;;;;23.46;52.01;100159.84;1765255;80;21849;-87
2021/08/07 09:05:37;;;;;;;10.05;2.00;;;;;;;23.60;52.08;100171.87;1766137;80;21476;-87
2021/08/07 09:08:04;;;;;;;6.30;2.27;;;;;;;23.67;51.39;100173.39;1777262;79;21540;-86
2021/08/07 09:10:31;;;;;;;4.90;4.12;;;;;;;23.78;50.90;100187.73;1736194;80;21261;-87
2021/08/07 09:13:00;;;;;;;4.00;2.37;;;;;;;23.76;50.22;100184.23;1784393;80;21101;-86
2021/08/07 09:15:39;;;;;;;6.53;2.55;;;;;;;23.68;50.16;100174.64;1763170;79;22455;-87
2021/08/07 09:18:15;;;;;;;8.38;2.30;;;;;;;23.66;50.36;100176.52;1771188;80;21039;-86
2021/08/07 09:20:44;;;;;;;8.08;1.70;;;;;;;23.74;49.85;100178.04;1776757;80;21003;-86
2021/08/07 09:23:11;;;;;;;13.22;2.20;;;;;;;23.72;49.33;100172.72;1762510;79;21024;-85
2021/08/07 09:25:41;;;;;;;2.75;2.00;;;;;;;23.74;49.21;100167.30;1765371;81;21055;-86
2021/08/07 09:28:08;;;;;;;3.90;1.60;;;;;;;23.77;49.27;100176.59;1769457;80;21291;-85
2021/08/07 09:30:40;;;;;;;1.50;1.40;;;;;;;23.74;48.96;100176.22;1772325;80;21055;-86
2021/08/07 09:33:12;;;;;;;2.05;1.60;;;;;;;23.66;48.76;100168.94;1771127;80;21031;-86
2021/08/07 09:35:44;;;;;;;8.35;2.30;;;;;;;23.66;48.83;100173.83;1775029;80;20984;-86
2021/08/07 09:38:25;;;;;;;2.27;1.90;;;;;;;23.71;48.87;100166.95;1775715;80;21528;-85
2021/08/07 09:41:04;;;;;;;10.30;2.22;;;;;;;23.76;48.64;100173.04;1774255;80;21775;-85
2021/08/07 09:43:48;;;;;;;4.17;3.50;;;;;;;23.78;48.62;100168.92;1769797;80;21012;-85
2021/08/07 09:46:25;;;;;;;2.55;2.35;;;;;;;23.75;48.19;100174.44;1772234;80;21070;-85
2021/08/07 09:48:55;;;;;;;3.92;1.42;;;;;;;23.68;48.04;100166.59;1783860;79;21125;-85
2021/08/07 09:51:35;;;;;;;3.55;1.30;;;;;;;23.65;48.25;100161.35;1784425;79;21112;-86
2021/08/07 09:54:12;;;;;;;3.20;1.57;;;;;;;23.66;48.17;100167.59;1784566;79;21944;-86
2021/08/07 09:56:50;;;;;;;3.55;1.50;;;;;;;23.68;48.04;100169.27;1783242;79;20999;-86
2021/08/07 09:59:19;;;;;;;8.73;2.95;;;;;;;23.66;47.90;100171.63;1784423;80;21053;-87
2021/08/07 10:01:47;;;;;;;2.50;1.42;;;;;;;23.66;47.64;100174.31;1784638;80;21520;-87
2021/08/07 10:04:14;;;;;;;3.40;1.90;;;;;;;23.62;47.50;100171.34;1767921;80;21034;-86
2021/08/07 10:06:43;;;;;;;4.05;2.17;;;;;;;23.61;47.49;100173.60;1764927;81;21955;-86
2021/08/07 10:09:10;;;;;;;3.67;3.15;;;;;;;23.60;47.37;100171.39;1764183;80;21458;-86
2021/08/07 10:11:36;;;;;;;4.95;1.80;;;;;;;23.55;47.35;100172.02;1771359;80;21066;-87
2021/08/07 10:14:03;;;;;;;1.92;1.20;;;;;;;23.59;47.65;100172.79;1765706;80;21059;-87
2021/08/07 10:16:31;;;;;;;3.27;2.65;;;;;;;23.68;47.59;100170.62;1767537;80;21018;-86
2021/08/07 10:18:57;;;;;;;1.95;1.55;;;;;;;23.74;47.21;100176.22;1775907;79;21721;-87
2021/08/07 10:21:24;;;;;;;4.53;3.50;;;;;;;23.73;46.99;100180.34;1770620;79;21024;-87
2021/08/07 10:23:54;;;;;;;4.17;2.02;;;;;;;23.67;46.81;100176.95;1784548;79;21034;-87
2021/08/07 10:26:22;;;;;;;4.17;2.90;;;;;;;23.60;46.71;100179.45;1784715;79;21058;-87
2021/08/07 10:28:55;;;;;;;7.03;2.85;;;;;;;23.52;46.46;100176.63;1766362;80;21054;-87
2021/08/07 10:31:24;;;;;;;3.40;3.08;;;;;;;23.46;46.31;100181.77;1775878;79;22015;-86
2021/08/07 10:33:55;;;;;;;2.52;1.80;;;;;;;23.42;46.52;100178.80;1775840;79;21027;-86
2021/08/07 10:36:23;;;;;;;5.33;1.52;;;;;;;23.42;46.52;100178.80;1775559;80;21038;-87
2021/08/07 10:38:51;;;;;;;2.35;2.15;;;;;;;23.47;46.48;100184.88;1776651;79;21798;-87
2021/08/07 10:41:18;;;;;;;5.28;1.57;;;;;;;23.45;46.18;100180.03;1775306;79;21039;-87
2021/08/07 10:43:46;;;;;;;5.22;1.42;;;;;;;23.33;46.08;100157.21;1776602;80;22529;-87
2021/08/07 10:46:13;;;;;;;2.67;1.70;;;;;;;23.33;46.08;100157.21;1744036;80;21077;-86
2021/08/07 10:48:48;;;;;;;3.27;1.52;;;;;;;23.49;46.09;100175.82;1694265;83;20999;-87
2021/08/07 10:51:23;;;;;;;7.25;1.95;;;;;;;23.40;46.12;100151.98;1783324;79;21691;-87
2021/08/07 10:54:00;;;;;;;1.75;1.17;;;;;;;23.47;45.98;100156.67;1784059;79;21128;-87
2021/08/07 10:56:38;;;;;;;5.55;1.87;;;;;;;23.58;45.60;100177.77;1769927;80;21973;-87
2021/08/07 10:59:17;;;;;;;3.30;1.30;;;;;;;23.58;45.77;100182.66;1775267;80;21488;-86
2021/08/07 11:01:45;;;;;;;5.42;1.62;;;;;;;23.56;45.14;100168.89;1781484;80;21002;-87
2021/08/07 11:04:21;;;;;;;2.55;1.37;;;;;;;23.56;45.14;100168.89;1784878;80;20995;-86
2021/08/07 11:06:55;;;;;;;1.67;1.55;;;;;;;23.66;44.72;100196.67;1785116;80;21034;-86
2021/08/07 11:09:33;;;;;;;;;;;;;;;23.66;44.93;100195.33;1787576;80;21802;-87
2021/08/07 11:12:15;;;;;;;5.35;1.60;;;;;;;23.70;44.95;100194.75;1770345;80;20164;-86
2021/08/07 11:14:47;;;;;;;10.10;1.50;;;;;;;23.76;44.96;100201.25;1776452;80;21623;-87
2021/08/07 11:17:19;;;;;;;1.17;1.07;;;;;;;23.81;44.70;100196.59;1774152;80;21663;-87
2021/08/07 11:20:09;;;;;;;4.05;1.65;;;;;;;23.89;44.73;100200.80;1776531;79;21206;-87
2021/08/07 11:22:41;;;;;;;1.98;1.50;;;;;;;23.95;44.12;100200.10;1784303;79;21801;-87
2021/08/07 11:25:19;;;;;;;1.52;1.10;;;;;;;24.01;43.68;100203.88;1784736;80;21541;-86
2021/08/07 11:27:59;;;;;;;2.83;1.07;;;;;;;24.01;43.46;100209.27;1784929;80;21037;-86
2021/08/07 11:30:39;;;;;;;4.58;1.42;;;;;;;24.02;43.18;100208.78;1784802;80;20999;-86